Time;durP1;ratioP1;P1;durP2;ratioP2;P2;SDS_P1;SDS_P2;PMS_P1;PMS_P2;Temp;Humidity;BMP_temperature;BMP_pressure;BME280_temperature;BME280_humidity;BME280_pressure;Samples;Min_cycle;Max_cycle;Signal;HPM_P1;HPM_P2
2023/05/30 00:00:13;;;;;;;;;;;;;;;22.81;54.45;98546.78;2088444;28;19989;-45
2023/05/30 00:01:15;;;;;;;;;;;;;;;22.80;54.52;98553.25;2089922;28;19932;-47
2023/05/30 00:02:16;;;;;;;;;;;;;;;22.80;54.45;98547.84;2087871;28;20009;-45
2023/05/30 00:03:18;;;;;;;;;;;;;;;22.81;54.48;98552.19;2081489;28;19958;-45
2023/05/30 00:04:20;;;;;;;;;;;;;;;22.80;54.51;98547.84;2088365;28;20005;-49
2023/05/30 00:05:22;;;;;;;;;;;;;;;22.80;54.62;98547.84;2087609;28;19924;-45
2023/05/30 00:06:22;;;;;;;;;;;;;;;22.81;54.79;98548.66;2085590;28;19963;-45
2023/05/30 00:07:24;;;;;;;;;;;;;;;22.81;54.63;98543.25;2079507;28;19928;-47
2023/05/30 00:08:26;;;;;;;;;;;;;;;22.80;54.72;98547.84;2085786;28;19970;-46
2023/05/30 00:09:28;;;;;;;;;;;;;;;22.80;54.61;98547.03;2084690;28;20514;-46
2023/05/30 00:10:28;;;;;;;;;;;;;;;22.80;54.72;98541.63;2088284;28;19963;-45
2023/05/30 00:11:30;;;;;;;;;;;;;;;22.79;54.66;98546.19;2087222;28;19920;-46
2023/05/30 00:12:31;;;;;;;;;;;;;;;22.80;54.65;98547.03;2084661;28;20028;-45
2023/05/30 00:13:33;;;;;;;;;;;;;;;22.79;54.77;98545.34;2087970;28;19974;-44
2023/05/30 00:14:36;;;;;;;;;;;;;;;22.79;54.68;98546.19;2085370;28;20378;-47
2023/05/30 00:15:40;;;;;;;;;;;;;;;22.81;54.62;98543.25;2085231;28;20025;-46
2023/05/30 00:16:41;;;;;;;;;;;;;;;22.79;54.84;98540.78;2085391;28;20084;-47
2023/05/30 00:17:43;;;;;;;;;;;;;;;22.80;54.78;98541.63;2087749;28;19955;-46
2023/05/30 00:18:43;;;;;;;;;;;;;;;22.79;54.76;98532.69;2087844;28;19977;-46
2023/05/30 00:19:45;;;;;;;;;;;;;;;22.80;54.78;98542.44;2088857;28;19969;-47
2023/05/30 00:20:47;;;;;;;;;;;;;;;22.79;54.80;98540.78;2087516;28;19924;-46
2023/05/30 00:21:49;;;;;;;;;;;;;;;22.79;54.68;98540.78;2086566;28;19934;-49
2023/05/30 00:22:51;;;;;;;;;;;;;;;22.78;54.73;98531.03;2084502;28;19950;-47
2023/05/30 00:23:52;;;;;;;;;;;;;;;22.80;54.88;98541.63;2086041;28;20309;-46
2023/05/30 00:24:53;;;;;;;;;;;;;;;22.79;54.89;98539.94;2077340;28;19920;-49
2023/05/30 00:25:55;;;;;;;;;;;;;;;22.78;54.83;98535.59;2086027;28;19929;-45
2023/05/30 00:26:56;;;;;;;;;;;;;;;22.79;55.08;98540.78;2085584;28;19970;-46
2023/05/30 00:27:58;;;;;;;;;;;;;;;22.80;54.92;98542.44;2087916;28;19925;-47
2023/05/30 00:28:58;;;;;;;;;;;;;;;22.79;54.93;98540.78;2085051;28;19925;-48
2023/05/30 00:30:00;;;;;;;;;;;;;;;22.79;54.94;98535.38;2079866;28;19935;-47
2023/05/30 00:31:02;;;;;;;;;;;;;;;22.79;54.94;98534.53;2084911;28;19963;-45
2023/05/30 00:32:03;;;;;;;;;;;;;;;22.79;54.80;98535.38;2086744;28;19924;-48
2023/05/30 00:33:04;;;;;;;;;;;;;;;22.78;54.98;98536.44;2087424;28;19963;-49
2023/05/30 00:34:05;;;;;;;;;;;;;;;22.78;54.98;98533.72;2085804;28;19921;-46
2023/05/30 00:35:06;;;;;;;;;;;;;;;22.79;54.89;98535.38;2085901;28;19933;-45
2023/05/30 00:36:08;;;;;;;;;;;;;;;22.79;54.95;98529.13;2086571;28;20656;-45
2023/05/30 00:37:08;;;;;;;;;;;;;;;22.77;54.97;98526.69;2085722;28;19956;-44
2023/05/30 00:38:10;;;;;;;;;;;;;;;22.78;54.98;98528.31;2085406;28;19935;-43
2023/05/30 00:39:10;;;;;;;;;;;;;;;22.78;55.12;98528.31;2088656;28;19921;-45
2023/05/30 00:40:12;;;;;;;;;;;;;;;22.78;55.03;98527.50;2087643;28;20007;-44
2023/05/30 00:41:13;;;;;;;;;;;;;;;22.77;54.97;98526.69;2086200;28;19932;-47
2023/05/30 00:42:14;;;;;;;;;;;;;;;22.77;55.15;98523.97;2084303;28;20882;-44
2023/05/30 00:43:15;;;;;;;;;;;;;;;22.78;55.17;98527.50;2087911;28;19982;-44
2023/05/30 00:44:17;;;;;;;;;;;;;;;22.77;55.04;98523.97;2085035;28;20961;-46
2023/05/30 00:45:17;;;;;;;;;;;;;;;22.78;55.18;98522.09;2084389;28;20122;-44
2023/05/30 00:46:20;;;;;;;;;;;;;;;22.78;54.94;98525.59;2085699;28;19924;-44
2023/05/30 00:47:21;;;;;;;;;;;;;;;22.77;55.06;98525.84;2079898;28;20019;-46
2023/05/30 00:48:22;;;;;;;;;;;;;;;22.78;55.03;98522.91;2086824;28;19932;-44
2023/05/30 00:49:24;;;;;;;;;;;;;;;22.77;55.02;98526.69;2085105;28;19974;-45
2023/05/30 00:50:26;;;;;;;;;;;;;;;22.78;55.17;98522.09;2085546;28;19928;-44
2023/05/30 00:51:28;;;;;;;;;;;;;;;22.77;55.08;98525.84;2079495;28;19981;-45
2023/05/30 00:52:30;;;;;;;;;;;;;;;22.78;55.09;98528.31;2084610;28;19920;-45
2023/05/30 00:53:31;;;;;;;;;;;;;;;22.77;55.28;98523.97;2086890;28;20002;-45
2023/05/30 00:54:32;;;;;;;;;;;;;;;22.77;55.06;98526.69;2086882;28;20359;-44
2023/05/30 00:55:33;;;;;;;;;;;;;;;22.77;55.28;98521.28;2083848;28;19920;-44
2023/05/30 00:56:34;;;;;;;;;;;;;;;22.77;55.08;98515.03;2085330;28;19964;-46
2023/05/30 00:57:36;;;;;;;;;;;;;;;22.78;55.33;98528.31;2084291;28;20475;-44
2023/05/30 00:58:39;;;;;;;;;;;;;;;22.77;55.21;98525.84;2086598;28;19924;-44
2023/05/30 00:59:39;;;;;;;;;;;;;;;22.78;55.26;98527.50;2085883;28;19932;-44
2023/05/30 01:00:41;;;;;;;;;;;;;;;22.77;55.25;98521.28;2087156;28;19924;-46
2023/05/30 01:01:43;;;;;;;;;;;;;;;22.77;55.34;98515.03;2088512;28;19929;-46
2023/05/30 01:02:44;;;;;;;;;;;;;;;22.76;55.24;98527.72;2087024;28;20533;-47
2023/05/30 01:03:47;;;;;;;;;;;;;;;22.78;55.42;98527.50;2086030;28;19981;-44
2023/05/30 01:04:48;;;;;;;;;;;;;;;22.76;55.39;98525.00;2083903;28;19921;-45
2023/05/30 01:05:49;;;;;;;;;;;;;;;22.77;55.36;98521.28;2086212;28;19924;-46
2023/05/30 01:06:50;;;;;;;;;;;;;;;22.77;55.28;98523.16;2084910;28;19925;-48
2023/05/30 01:07:52;;;;;;;;;;;;;;;22.75;55.31;98529.59;2086590;28;20501;-44
2023/05/30 01:08:54;;;;;;;;;;;;;;;22.77;55.45;98520.44;2076736;28;19939;-44
2023/05/30 01:09:55;;;;;;;;;;;;;;;22.76;55.42;98519.59;2086596;28;20600;-46
2023/05/30 01:11:03;;;;;;;;;;;;;;;22.77;55.28;98523.16;2086313;28;19924;-44
2023/05/30 01:12:10;;;;;;;;;;;;;;;22.75;55.49;98517.97;2086906;28;19921;-45
2023/05/30 01:13:17;;;;;;;;;;;;;;;22.75;55.28;98518.78;2082372;28;19925;-44
2023/05/30 01:14:22;;;;;;;;;;;;;;;22.75;55.28;98517.97;2085102;28;20007;-47
2023/05/30 01:15:27;;;;;;;;;;;;;;;22.77;55.39;98520.44;2083555;28;19925;-47
2023/05/30 01:16:32;;;;;;;;;;;;;;;22.76;55.38;98519.59;2087256;28;20516;-47
2023/05/30 01:17:42;;;;;;;;;;;;;;;22.76;55.30;98514.19;2085225;28;19960;-44
2023/05/30 01:18:45;;;;;;;;;;;;;;;22.75;55.47;98518.78;2091341;28;19923;-44
2023/05/30 01:19:59;;;;;;;;;;;;;;;22.77;55.46;98515.03;2087552;28;19924;-48
2023/05/30 01:21:02;;;;;;;;;;;;;;;22.75;55.32;98512.56;2087547;28;19925;-46
2023/05/30 01:22:16;;;;;;;;;;;;;;;22.75;55.45;98523.38;2085446;28;19927;-46
2023/05/30 01:23:24;;;;;;;;;;;;;;;22.75;55.53;98521.50;2086497;28;19924;-45
2023/05/30 01:24:30;;;;;;;;;;;;;;;22.75;55.42;98521.50;2087852;28;19971;-46
2023/05/30 01:25:38;;;;;;;;;;;;;;;22.75;55.48;98517.97;2088576;28;19928;-46
2023/05/30 01:26:49;;;;;;;;;;;;;;;22.74;55.51;98516.34;2083278;28;19947;-47
2023/05/30 01:27:57;;;;;;;;;;;;;;;22.74;55.46;98524.44;2086545;28;19920;-46
2023/05/30 01:29:02;;;;;;;;;;;;;;;22.75;55.46;98528.78;2090531;28;20019;-45
2023/05/30 01:30:03;;;;;;;;;;;;;;;22.74;55.53;98524.44;2087355;28;19924;-45
2023/05/30 01:31:06;;;;;;;;;;;;;;;22.75;55.63;98523.38;2085463;28;20429;-44
2023/05/30 01:32:07;;;;;;;;;;;;;;;22.74;55.55;98522.56;2079611;28;19925;-46
2023/05/30 01:33:09;;;;;;;;;;;;;;;22.74;55.57;98527.16;2086509;28;20015;-46
2023/05/30 01:34:10;;;;;;;;;;;;;;;22.74;55.42;98521.75;2085720;28;20611;-47
2023/05/30 01:35:21;;;;;;;;;;;;;;;22.74;55.48;98527.16;2088685;28;19927;-44
2023/05/30 01:36:21;;;;;;;;;;;;;;;22.73;55.59;98526.31;2078017;28;20015;-46
2023/05/30 01:37:23;;;;;;;;;;;;;;;22.73;55.50;98525.47;2085305;28;20455;-45
2023/05/30 01:38:23;;;;;;;;;;;;;;;22.73;55.49;98525.47;2085641;28;19970;-45
2023/05/30 01:39:25;;;;;;;;;;;;;;;22.73;55.63;98522.78;2087876;28;19932;-47
2023/05/30 01:40:26;;;;;;;;;;;;;;;22.73;55.45;98525.47;2088545;28;19928;-45
2023/05/30 01:41:31;;;;;;;;;;;;;;;22.74;55.63;98529.84;2088884;28;19981;-45
2023/05/30 01:42:32;;;;;;;;;;;;;;;22.72;55.34;98530.06;2087643;28;20035;-45
2023/05/30 01:43:40;;;;;;;;;;;;;;;22.74;55.55;98532.56;2087189;28;20486;-45
2023/05/30 01:44:46;;;;;;;;;;;;;;;22.73;55.64;98525.47;2083845;28;21189;-44
2023/05/30 01:45:53;;;;;;;;;;;;;;;22.72;55.70;98524.66;2086445;28;20358;-44
2023/05/30 01:46:58;;;;;;;;;;;;;;;22.73;55.77;98528.19;2082963;28;19929;-45
2023/05/30 01:48:05;;;;;;;;;;;;;;;22.72;55.49;98527.38;2089972;28;20027;-43
2023/05/30 01:49:09;;;;;;;;;;;;;;;22.72;55.67;98530.06;2087702;28;19920;-44
2023/05/30 01:50:14;;;;;;;;;;;;;;;22.72;55.44;98534.66;2087096;28;19928;-45
2023/05/30 01:51:17;;;;;;;;;;;;;;;22.73;55.49;98520.06;2086017;28;20012;-45
2023/05/30 01:52:21;;;;;;;;;;;;;;;22.71;55.65;98525.72;2086492;28;19966;-44
2023/05/30 01:53:22;;;;;;;;;;;;;;;22.72;55.65;98526.53;2086564;28;19968;-46
2023/05/30 01:54:25;;;;;;;;;;;;;;;22.72;55.63;98521.97;2077666;28;19931;-44
2023/05/30 01:55:26;;;;;;;;;;;;;;;22.74;55.69;98527.16;2085559;28;19924;-45
2023/05/30 01:56:28;;;;;;;;;;;;;;;22.72;55.70;98521.13;2086730;28;20327;-44
2023/05/30 01:57:29;;;;;;;;;;;;;;;22.73;55.61;98526.31;2081495;28;19925;-44
2023/05/30 01:58:33;;;;;;;;;;;;;;;22.72;55.55;98521.13;2080366;28;19935;-44
2023/05/30 01:59:37;;;;;;;;;;;;;;;22.71;55.82;98524.91;2087990;28;19936;-46
2023/05/30 02:00:39;;;;;;;;;;;;;;;22.72;55.83;98527.38;2087065;28;19929;-46
2023/05/30 02:01:40;;;;;;;;;;;;;;;22.71;55.67;98522.22;2085043;28;19932;-45
2023/05/30 02:02:41;;;;;;;;;;;;;;;22.73;55.67;98523.63;2083744;28;19932;-45
2023/05/30 02:03:42;;;;;;;;;;;;;;;22.72;55.90;98521.13;2084568;28;20517;-44
2023/05/30 02:04:43;;;;;;;;;;;;;;;22.72;55.70;98518.44;2085028;28;19925;-44
2023/05/30 02:05:44;;;;;;;;;;;;;;;22.70;55.72;98509.72;2085345;28;19928;-45
2023/05/30 02:06:45;;;;;;;;;;;;;;;22.70;55.76;98521.34;2084453;28;19974;-44
2023/05/30 02:07:46;;;;;;;;;;;;;;;22.70;55.85;98517.84;2087605;28;19921;-44
2023/05/30 02:08:47;;;;;;;;;;;;;;;22.71;55.69;98516.81;2085323;28;20224;-46
2023/05/30 02:09:48;;;;;;;;;;;;;;;22.70;55.65;98509.72;2085974;28;19997;-45
2023/05/30 02:10:49;;;;;;;;;;;;;;;22.69;55.69;98514.31;2087030;28;19974;-44
2023/05/30 02:11:50;;;;;;;;;;;;;;;22.70;55.85;98515.13;2086813;28;19928;-44
2023/05/30 02:12:51;;;;;;;;;;;;;;;22.72;55.75;98515.72;2087015;28;20599;-44
2023/05/30 02:13:52;;;;;;;;;;;;;;;22.69;55.76;98513.50;2087607;28;19932;-46
2023/05/30 02:14:55;;;;;;;;;;;;;;;22.70;55.72;98512.44;2079656;28;20388;-45
2023/05/30 02:15:56;;;;;;;;;;;;;;;22.68;55.90;98509.97;2083338;28;19924;-45
2023/05/30 02:16:59;;;;;;;;;;;;;;;22.70;55.80;98509.72;2086855;28;20521;-50
2023/05/30 02:17:59;;;;;;;;;;;;;;;22.69;56.01;98518.91;2085780;28;19928;-50
2023/05/30 02:19:01;;;;;;;;;;;;;;;22.69;55.81;98519.72;2086594;28;19930;-45
2023/05/30 02:20:01;;;;;;;;;;;;;;;22.70;55.90;98517.84;2081450;28;19928;-48
2023/05/30 02:21:03;;;;;;;;;;;;;;;22.69;55.81;98518.91;2087794;28;20022;-49
2023/05/30 02:22:04;;;;;;;;;;;;;;;22.70;55.85;98517.84;2087477;28;19955;-45
2023/05/30 02:23:06;;;;;;;;;;;;;;;22.69;55.70;98521.59;2088110;28;19920;-44
2023/05/30 02:24:07;;;;;;;;;;;;;;;22.69;55.73;98518.91;2084886;28;20014;-46
2023/05/30 02:25:09;;;;;;;;;;;;;;;22.70;55.83;98517.84;2088031;28;19928;-46
2023/05/30 02:26:10;;;;;;;;;;;;;;;22.69;55.94;98518.91;2086285;28;19929;-46
2023/05/30 02:27:11;;;;;;;;;;;;;;;22.69;55.80;98522.44;2087708;28;19924;-46
2023/05/30 02:28:12;;;;;;;;;;;;;;;22.70;55.76;98517.84;2086318;28;19967;-46
2023/05/30 02:29:13;;;;;;;;;;;;;;;22.68;55.94;98520.78;2088922;28;21973;-46
2023/05/30 02:30:15;;;;;;;;;;;;;;;22.68;55.97;98522.69;2083882;28;20331;-45
2023/05/30 02:31:17;;;;;;;;;;;;;;;22.69;56.01;98521.59;2085801;28;19921;-46
2023/05/30 02:32:17;;;;;;;;;;;;;;;22.68;55.82;98518.09;2083500;28;19931;-45
2023/05/30 02:33:19;;;;;;;;;;;;;;;22.68;55.98;98517.28;2086290;28;20030;-45
2023/05/30 02:34:19;;;;;;;;;;;;;;;22.67;55.93;98518.31;2085388;28;20042;-44
2023/05/30 02:35:21;;;;;;;;;;;;;;;22.68;55.93;98522.69;2084549;28;19924;-48
2023/05/30 02:36:21;;;;;;;;;;;;;;;22.67;56.00;98516.41;2083001;28;19928;-46
2023/05/30 02:37:23;;;;;;;;;;;;;;;22.67;55.95;98518.31;2086018;28;19924;-46
2023/05/30 02:38:24;;;;;;;;;;;;;;;22.68;55.87;98511.88;2079695;28;20596;-45
2023/05/30 02:39:25;;;;;;;;;;;;;;;22.68;55.94;98517.28;2085262;28;19929;-47
2023/05/30 02:40:26;;;;;;;;;;;;;;;22.68;56.06;98519.97;2084208;28;20417;-46
2023/05/30 02:41:27;;;;;;;;;;;;;;;22.68;55.91;98511.88;2084804;28;20027;-46
2023/05/30 02:42:28;;;;;;;;;;;;;;;22.67;55.98;98507.50;2069190;28;19935;-46
2023/05/30 02:43:29;;;;;;;;;;;;;;;22.67;56.09;98515.59;2080946;28;20018;-46
2023/05/30 02:44:30;;;;;;;;;;;;;;;22.67;55.99;98515.59;2084823;28;19928;-45
2023/05/30 02:45:33;;;;;;;;;;;;;;;22.66;55.92;98516.66;2082047;28;19967;-45
2023/05/30 02:46:33;;;;;;;;;;;;;;;22.66;56.00;98516.66;2088270;28;20027;-48
2023/05/30 02:47:35;;;;;;;;;;;;;;;22.66;55.96;98506.69;2086466;28;20386;-45
2023/05/30 02:48:35;;;;;;;;;;;;;;;22.66;55.96;98511.25;2085267;28;19921;-46
2023/05/30 02:49:37;;;;;;;;;;;;;;;22.68;56.07;98511.88;2083635;28;19967;-45
2023/05/30 02:50:37;;;;;;;;;;;;;;;22.66;55.88;98509.38;2085853;28;20500;-45
2023/05/30 02:51:41;;;;;;;;;;;;;;;22.66;55.93;98520.19;2083268;28;20015;-46
2023/05/30 02:52:42;;;;;;;;;;;;;;;22.66;56.07;98519.38;2085161;28;19924;-46
2023/05/30 02:53:43;;;;;;;;;;;;;;;22.66;55.79;98511.25;2084598;28;19920;-45
2023/05/30 02:54:44;;;;;;;;;;;;;;;22.65;56.13;98509.59;2087571;28;20402;-45
2023/05/30 02:55:45;;;;;;;;;;;;;;;22.66;56.12;98508.56;2085303;28;19932;-45
2023/05/30 02:56:46;;;;;;;;;;;;;;;22.65;55.89;98509.59;2083418;28;19929;-45
2023/05/30 02:57:47;;;;;;;;;;;;;;;22.65;56.20;98512.31;2085802;28;19929;-47
2023/05/30 02:58:48;;;;;;;;;;;;;;;22.65;56.11;98513.16;2086135;28;19924;-45
2023/05/30 02:59:49;;;;;;;;;;;;;;;22.64;55.83;98508.78;2080606;28;19936;-46
2023/05/30 03:00:52;;;;;;;;;;;;;;;22.65;56.14;98510.44;2084188;28;19962;-47
2023/05/30 03:01:53;;;;;;;;;;;;;;;22.65;56.03;98513.16;2086453;28;19951;-45
2023/05/30 03:02:54;;;;;;;;;;;;;;;22.64;56.13;98514.19;2084239;28;20023;-46
2023/05/30 03:03:55;;;;;;;;;;;;;;;22.64;56.10;98505.25;2078599;28;19924;-45
2023/05/30 03:04:56;;;;;;;;;;;;;;;22.64;55.98;98510.66;2086030;28;20446;-46
2023/05/30 03:05:59;;;;;;;;;;;;;;;22.64;56.11;98511.47;2086050;28;19931;-46
2023/05/30 03:06:59;;;;;;;;;;;;;;;22.65;56.22;98506.91;2088534;28;19932;-45
2023/05/30 03:08:01;;;;;;;;;;;;;;;22.64;55.96;98511.47;2084877;28;19925;-45
2023/05/30 03:09:01;;;;;;;;;;;;;;;22.64;56.11;98508.78;2088154;28;19920;-45
2023/05/30 03:10:03;;;;;;;;;;;;;;;22.63;56.10;98509.84;2088268;28;19981;-45
2023/05/30 03:11:03;;;;;;;;;;;;;;;22.63;56.02;98509.84;2085852;28;19929;-46
2023/05/30 03:12:06;;;;;;;;;;;;;;;22.64;56.08;98503.38;2088076;28;20070;-46
2023/05/30 03:13:06;;;;;;;;;;;;;;;22.63;56.13;98507.16;2084046;28;19928;-45
2023/05/30 03:14:08;;;;;;;;;;;;;;;22.63;56.10;98511.72;2086457;28;19952;-46
2023/05/30 03:15:09;;;;;;;;;;;;;;;22.64;56.22;98510.66;2088377;28;19929;-45
2023/05/30 03:16:12;;;;;;;;;;;;;;;22.63;56.12;98507.16;2088933;28;20418;-46
2023/05/30 03:17:13;;;;;;;;;;;;;;;22.62;56.12;98510.06;2083244;28;21000;-45
2023/05/30 03:18:14;;;;;;;;;;;;;;;22.64;56.12;98510.66;2089074;28;20021;-46
2023/05/30 03:19:15;;;;;;;;;;;;;;;22.64;56.15;98510.66;2084286;28;24184;-45
2023/05/30 03:20:16;;;;;;;;;;;;;;;22.63;56.17;98503.63;2086813;28;19928;-47
2023/05/30 03:21:17;;;;;;;;;;;;;;;22.64;56.19;98510.66;2086763;28;19931;-47
2023/05/30 03:22:18;;;;;;;;;;;;;;;22.63;56.04;98503.63;2089142;28;19959;-46
2023/05/30 03:23:19;;;;;;;;;;;;;;;22.62;56.19;98501.97;2085650;28;20401;-45
2023/05/30 03:24:21;;;;;;;;;;;;;;;22.63;56.15;98503.63;2082759;28;19945;-44
2023/05/30 03:25:21;;;;;;;;;;;;;;;22.63;56.20;98507.16;2085000;28;20061;-46
2023/05/30 03:26:23;;;;;;;;;;;;;;;22.64;56.27;98502.56;2077323;28;19975;-44
2023/05/30 03:27:24;;;;;;;;;;;;;;;22.63;56.21;98507.16;2087946;28;19921;-44
2023/05/30 03:28:25;;;;;;;;;;;;;;;22.62;56.24;98507.38;2086569;28;20407;-46
2023/05/30 03:29:27;;;;;;;;;;;;;;;22.62;56.32;98507.38;2087151;28;20019;-45
2023/05/30 03:30:28;;;;;;;;;;;;;;;22.63;56.15;98509.03;2089478;28;20317;-46
2023/05/30 03:31:30;;;;;;;;;;;;;;;22.63;56.18;98503.63;2089113;28;20031;-45
2023/05/30 03:32:32;;;;;;;;;;;;;;;22.61;55.97;98506.53;2085484;28;19931;-47
2023/05/30 03:33:32;;;;;;;;;;;;;;;22.61;56.04;98503.03;2084668;28;19932;-44
2023/05/30 03:34:35;;;;;;;;;;;;;;;22.61;56.02;98501.13;2085947;28;19920;-46
2023/05/30 03:35:35;;;;;;;;;;;;;;;22.62;56.21;98508.22;2086749;28;20606;-46
2023/05/30 03:36:37;;;;;;;;;;;;;;;22.63;56.21;98511.72;2083267;28;20004;-45
2023/05/30 03:37:37;;;;;;;;;;;;;;;22.63;56.38;98498.22;2086396;28;19925;-44
2023/05/30 03:38:39;;;;;;;;;;;;;;;22.63;56.13;98506.31;2089284;28;20398;-45
2023/05/30 03:39:40;;;;;;;;;;;;;;;22.62;56.17;98499.25;2087961;28;20430;-45
2023/05/30 03:40:41;;;;;;;;;;;;;;;22.61;56.29;98503.84;2087328;28;19943;-45
2023/05/30 03:41:41;;;;;;;;;;;;;;;22.61;56.33;98500.31;2086805;28;19950;-44
2023/05/30 03:42:43;;;;;;;;;;;;;;;22.61;56.41;98505.72;2083998;28;19921;-45
2023/05/30 03:43:43;;;;;;;;;;;;;;;22.62;56.19;98504.66;2085250;28;20011;-44
2023/05/30 03:44:45;;;;;;;;;;;;;;;22.61;56.02;98505.72;2089784;28;19931;-47
2023/05/30 03:45:46;;;;;;;;;;;;;;;22.61;56.21;98503.03;2082112;28;19928;-46
2023/05/30 03:46:48;;;;;;;;;;;;;;;22.59;56.27;98500.53;2085753;28;19959;-46
2023/05/30 03:47:49;;;;;;;;;;;;;;;22.61;56.36;98500.31;2086165;28;19929;-46
2023/05/30 03:48:51;;;;;;;;;;;;;;;22.62;56.31;98501.97;2077936;28;20663;-53
2023/05/30 03:49:52;;;;;;;;;;;;;;;22.63;56.20;98503.63;2085932;28;19921;-44
2023/05/30 03:50:53;;;;;;;;;;;;;;;22.61;56.22;98505.72;2087244;28;19920;-48
2023/05/30 03:51:53;;;;;;;;;;;;;;;22.60;56.24;98509.50;2089412;28;19970;-44
2023/05/30 03:52:55;;;;;;;;;;;;;;;22.61;56.32;98509.25;2085324;28;19924;-44
2023/05/30 03:53:55;;;;;;;;;;;;;;;22.60;56.24;98514.91;2088922;28;20398;-44
2023/05/30 03:54:57;;;;;;;;;;;;;;;22.60;56.28;98514.91;2087416;28;19927;-46
2023/05/30 03:55:57;;;;;;;;;;;;;;;22.60;56.21;98509.50;2083722;28;19928;-47
2023/05/30 03:57:00;;;;;;;;;;;;;;;22.61;56.15;98516.53;2088055;28;19921;-44
2023/05/30 03:58:00;;;;;;;;;;;;;;;22.60;56.28;98510.31;2088276;28;19924;-47
2023/05/30 03:59:02;;;;;;;;;;;;;;;22.60;56.31;98512.19;2087151;28;20722;-47
2023/05/30 04:00:03;;;;;;;;;;;;;;;22.60;56.28;98514.91;2088158;28;19967;-47
2023/05/30 04:01:05;;;;;;;;;;;;;;;22.60;56.37;98515.72;2091156;28;19954;-50
2023/05/30 04:02:07;;;;;;;;;;;;;;;22.59;56.26;98514.06;2089285;28;20570;-48
2023/05/30 04:03:08;;;;;;;;;;;;;;;22.60;56.33;98514.91;2089731;28;19964;-47
2023/05/30 04:04:09;;;;;;;;;;;;;;;22.61;56.36;98513.84;2087669;28;20022;-46
2023/05/30 04:05:10;;;;;;;;;;;;;;;22.60;56.31;98509.50;2090296;28;19931;-48
2023/05/30 04:06:11;;;;;;;;;;;;;;;22.60;56.18;98509.50;2081374;28;19981;-48
2023/05/30 04:07:13;;;;;;;;;;;;;;;22.59;56.38;98507.84;2087796;28;19928;-49
2023/05/30 04:08:13;;;;;;;;;;;;;;;22.59;56.33;98511.34;2087030;28;20058;-48
2023/05/30 04:09:15;;;;;;;;;;;;;;;22.59;56.26;98500.53;2087160;28;19924;-47
2023/05/30 04:10:15;;;;;;;;;;;;;;;22.60;56.34;98512.19;2083942;28;20089;-46
2023/05/30 04:11:17;;;;;;;;;;;;;;;22.59;56.19;98511.34;2087944;28;19940;-48
2023/05/30 04:12:17;;;;;;;;;;;;;;;22.59;56.45;98503.25;2089200;28;19924;-46
2023/05/30 04:13:19;;;;;;;;;;;;;;;22.59;56.14;98505.94;2091065;28;20338;-48
2023/05/30 04:14:19;;;;;;;;;;;;;;;22.60;56.20;98514.91;2089247;28;19936;-47
2023/05/30 04:15:21;;;;;;;;;;;;;;;22.59;56.33;98510.53;2088439;28;19920;-44
2023/05/30 04:16:21;;;;;;;;;;;;;;;22.59;56.27;98513.25;2086189;28;20423;-47
2023/05/30 04:17:24;;;;;;;;;;;;;;;22.59;56.48;98505.94;2088138;28;19932;-47
2023/05/30 04:18:25;;;;;;;;;;;;;;;22.59;56.34;98513.25;2092807;28;20390;-46
2023/05/30 04:19:27;;;;;;;;;;;;;;;22.59;56.30;98507.84;2087873;28;19924;-46
2023/05/30 04:20:27;;;;;;;;;;;;;;;22.59;56.26;98513.25;2088102;28;20007;-49
2023/05/30 04:21:29;;;;;;;;;;;;;;;22.58;56.34;98506.19;2089478;28;19928;-48
2023/05/30 04:22:29;;;;;;;;;;;;;;;22.58;56.27;98514.31;2091224;28;19924;-47
2023/05/30 04:23:30;;;;;;;;;;;;;;;22.58;56.38;98511.59;2089347;28;20043;-44
2023/05/30 04:24:31;;;;;;;;;;;;;;;22.57;56.58;98510.78;2089437;28;19925;-48
2023/05/30 04:25:32;;;;;;;;;;;;;;;22.58;56.33;98515.13;2089863;28;19966;-46
2023/05/30 04:26:33;;;;;;;;;;;;;;;22.57;56.34;98508.09;2089211;28;19974;-48
2023/05/30 04:27:34;;;;;;;;;;;;;;;22.58;56.31;98512.41;2087183;28;20464;-47
2023/05/30 04:28:36;;;;;;;;;;;;;;;22.58;56.39;98512.41;2086572;28;20509;-52
2023/05/30 04:29:40;;;;;;;;;;;;;;;22.59;56.32;98513.25;2088945;28;20072;-47
2023/05/30 04:30:41;;;;;;;;;;;;;;;22.58;56.43;98514.31;2090779;28;20370;-47
2023/05/30 04:31:43;;;;;;;;;;;;;;;22.58;56.30;98522.41;2086516;28;19924;-50
2023/05/30 04:32:45;;;;;;;;;;;;;;;22.57;56.37;98521.59;2085024;28;19931;-48
2023/05/30 04:33:48;;;;;;;;;;;;;;;22.57;56.36;98516.19;2086536;28;19963;-49
2023/05/30 04:34:48;;;;;;;;;;;;;;;22.57;56.41;98520.78;2088806;28;19974;-49
2023/05/30 04:35:50;;;;;;;;;;;;;;;22.57;56.36;98523.47;2086756;28;20554;-47
2023/05/30 04:36:52;;;;;;;;;;;;;;;22.56;56.29;98522.63;2087822;28;19959;-45
2023/05/30 04:37:53;;;;;;;;;;;;;;;22.57;56.43;98526.19;2086520;28;19963;-46
2023/05/30 04:38:54;;;;;;;;;;;;;;;22.57;56.48;98526.19;2089831;28;20520;-49
2023/05/30 04:39:57;;;;;;;;;;;;;;;22.57;56.40;98523.47;2073295;28;19924;-47
2023/05/30 04:41:00;;;;;;;;;;;;;;;22.57;56.45;98531.59;2083950;28;19986;-48
2023/05/30 04:42:04;;;;;;;;;;;;;;;22.57;56.51;98526.19;2084831;28;20011;-49
2023/05/30 04:43:05;;;;;;;;;;;;;;;22.55;56.61;98529.09;2088071;28;19924;-50
2023/05/30 04:44:07;;;;;;;;;;;;;;;22.55;56.41;98522.88;2087978;28;20550;-47
2023/05/30 04:45:08;;;;;;;;;;;;;;;22.56;56.40;98524.53;2088799;28;19963;-46
2023/05/30 04:46:09;;;;;;;;;;;;;;;22.56;56.50;98527.22;2085635;28;19960;-46
2023/05/30 04:47:10;;;;;;;;;;;;;;;22.55;56.44;98525.59;2085611;28;20398;-48
2023/05/30 04:48:15;;;;;;;;;;;;;;;22.54;56.37;98524.78;2087720;28;19993;-49
2023/05/30 04:49:16;;;;;;;;;;;;;;;22.56;56.45;98521.81;2085690;28;19925;-47
2023/05/30 04:50:18;;;;;;;;;;;;;;;22.55;56.35;98525.59;2086592;28;19994;-47
2023/05/30 04:51:19;;;;;;;;;;;;;;;22.53;56.48;98529.31;2088579;28;19920;-47
2023/05/30 04:52:21;;;;;;;;;;;;;;;22.55;56.49;98522.88;2087588;28;19960;-45
2023/05/30 04:53:22;;;;;;;;;;;;;;;22.55;56.38;98523.69;2087752;28;19982;-49
2023/05/30 04:54:23;;;;;;;;;;;;;;;22.53;56.46;98521.22;2083060;28;19920;-50
2023/05/30 04:55:24;;;;;;;;;;;;;;;22.53;56.53;98526.63;2082189;28;19932;-43
2023/05/30 04:56:26;;;;;;;;;;;;;;;22.54;56.53;98527.47;2083161;28;20724;-50
2023/05/30 04:57:26;;;;;;;;;;;;;;;22.55;56.47;98531.00;2086247;28;20453;-47
2023/05/30 04:58:28;;;;;;;;;;;;;;;22.56;56.57;98525.34;2088521;28;19924;-50
2023/05/30 04:59:28;;;;;;;;;;;;;;;22.53;56.63;98528.50;2088398;28;20437;-53
2023/05/30 05:00:30;;;;;;;;;;;;;;;22.52;56.55;98525.00;2087078;28;19936;-47
2023/05/30 05:01:35;;;;;;;;;;;;;;;22.54;56.41;98532.88;2086418;28;19982;-47
2023/05/30 05:02:38;;;;;;;;;;;;;;;22.52;56.54;98519.59;2088291;28;19965;-48
2023/05/30 05:03:41;;;;;;;;;;;;;;;22.52;56.43;98525.00;2088761;28;19931;-51
2023/05/30 05:04:41;;;;;;;;;;;;;;;22.52;56.69;98527.69;2087179;28;19979;-44
2023/05/30 05:05:43;;;;;;;;;;;;;;;22.51;56.71;98520.66;2081812;28;19932;-46
2023/05/30 05:06:43;;;;;;;;;;;;;;;22.52;56.44;98525.00;2085776;28;20419;-47
2023/05/30 05:07:45;;;;;;;;;;;;;;;22.53;56.67;98529.31;2089009;28;19929;-49
2023/05/30 05:08:45;;;;;;;;;;;;;;;22.53;56.59;98525.81;2087691;28;19950;-52
2023/05/30 05:09:47;;;;;;;;;;;;;;;22.53;56.43;98531.22;2086074;28;20378;-44
2023/05/30 05:10:47;;;;;;;;;;;;;;;22.52;56.64;98533.09;2086616;28;19928;-49
2023/05/30 05:11:49;;;;;;;;;;;;;;;22.51;56.55;98528.75;2087994;28;19966;-49
2023/05/30 05:12:49;;;;;;;;;;;;;;;22.51;56.66;98531.47;2086644;28;20009;-51
2023/05/30 05:13:51;;;;;;;;;;;;;;;22.51;56.68;98534.16;2088091;28;20445;-48
2023/05/30 05:14:53;;;;;;;;;;;;;;;22.51;56.55;98526.06;2086442;28;20356;-46
2023/05/30 05:15:55;;;;;;;;;;;;;;;22.52;56.77;98534.97;2091709;28;19924;-50
2023/05/30 05:16:57;;;;;;;;;;;;;;;22.50;56.40;98529.78;2080558;28;20727;-51
2023/05/30 05:17:58;;;;;;;;;;;;;;;22.51;56.78;98527.91;2086445;28;19924;-51
2023/05/30 05:19:01;;;;;;;;;;;;;;;22.51;56.72;98536.88;2086713;28;19928;-47
2023/05/30 05:20:05;;;;;;;;;;;;;;;22.51;56.54;98534.16;2084784;28;19928;-49
2023/05/30 05:21:07;;;;;;;;;;;;;;;22.50;56.58;98535.19;2088043;28;19951;-45
2023/05/30 05:22:08;;;;;;;;;;;;;;;22.52;56.59;98538.50;2085312;28;20015;-47